createdAt,value
2018-05-29T00:00:12.512Z,0
2018-05-29T00:01:13.088Z,0
2018-05-29T00:02:13.675Z,0
2018-05-29T00:03:14.262Z,0
2018-05-29T00:04:14.838Z,0
2018-05-29T00:05:15.415Z,0
2018-05-29T00:06:15.992Z,0
2018-05-29T00:07:16.569Z,0
2018-05-29T00:08:17.148Z,0
2018-05-29T00:09:17.725Z,0
2018-05-29T00:10:18.308Z,0
2018-05-29T00:11:18.884Z,0
2018-05-29T00:12:19.459Z,0
2018-05-29T00:13:20.035Z,0
2018-05-29T00:14:20.613Z,0
2018-05-29T00:15:21.192Z,0
2018-05-29T00:16:21.777Z,0
2018-05-29T00:17:22.355Z,0
2018-05-29T00:18:22.934Z,0
2018-05-29T00:19:23.520Z,0
2018-05-29T00:20:24.096Z,0
2018-05-29T00:21:24.673Z,0
2018-05-29T00:22:25.256Z,0
2018-05-29T00:23:25.830Z,0
2018-05-29T00:24:26.408Z,0
2018-05-29T00:25:26.984Z,0
2018-05-29T00:26:27.562Z,0
2018-05-29T00:27:28.138Z,0
2018-05-29T00:28:28.716Z,0
2018-05-29T00:29:29.292Z,0
2018-05-29T00:30:29.869Z,0
2018-05-29T00:31:30.446Z,0
2018-05-29T00:32:31.032Z,0
2018-05-29T00:33:31.611Z,0
2018-05-29T00:34:32.188Z,0
2018-05-29T00:35:32.779Z,0
2018-05-29T00:36:33.353Z,0
2018-05-29T00:37:33.931Z,0
2018-05-29T00:38:34.510Z,0
2018-05-29T00:39:35.085Z,0
2018-05-29T00:40:35.673Z,0
2018-05-29T00:41:36.252Z,0
2018-05-29T00:42:36.830Z,0
2018-05-29T00:43:37.408Z,0
2018-05-29T00:44:37.987Z,0
2018-05-29T00:45:38.562Z,0
2018-05-29T00:46:39.138Z,0
2018-05-29T00:47:39.714Z,0
2018-05-29T00:48:40.290Z,0
2018-05-29T00:49:40.866Z,0
2018-05-29T00:50:41.443Z,0
2018-05-29T00:51:42.019Z,0
2018-05-29T00:52:42.596Z,0
2018-05-29T00:53:43.184Z,0
2018-05-29T00:54:43.772Z,0
2018-05-29T00:55:44.351Z,0
2018-05-29T00:56:44.927Z,0
2018-05-29T00:57:45.512Z,0
2018-05-29T00:58:46.081Z,0
2018-05-29T00:59:46.658Z,0
2018-05-29T01:00:47.234Z,0
2018-05-29T01:01:47.812Z,0
2018-05-29T01:02:48.389Z,0
2018-05-29T01:03:48.968Z,0
2018-05-29T01:04:49.552Z,0
2018-05-29T01:05:53.161Z,0
2018-05-29T01:06:53.739Z,0
2018-05-29T01:07:54.314Z,0
2018-05-29T01:08:54.891Z,0
2018-05-29T01:09:55.468Z,0
2018-05-29T01:10:56.043Z,0
2018-05-29T01:11:56.620Z,0
2018-05-29T01:12:57.196Z,0
2018-05-29T01:13:57.772Z,0
2018-05-29T01:14:58.350Z,0
2018-05-29T01:15:58.929Z,0
2018-05-29T01:16:59.512Z,0
2018-05-29T01:18:00.094Z,0
2018-05-29T01:19:00.671Z,0
2018-05-29T01:20:01.261Z,0
2018-05-29T01:21:01.838Z,0
2018-05-29T01:22:02.425Z,0
2018-05-29T01:23:03.003Z,0
2018-05-29T01:24:03.581Z,0
2018-05-29T01:25:04.156Z,0
2018-05-29T01:26:04.732Z,0
2018-05-29T01:27:05.308Z,0
2018-05-29T01:28:05.884Z,0
2018-05-29T01:29:06.472Z,0
2018-05-29T01:30:07.054Z,0
2018-05-29T01:31:07.635Z,0
2018-05-29T01:32:08.211Z,0
2018-05-29T01:33:08.788Z,0
2018-05-29T01:34:09.364Z,0
2018-05-29T01:35:09.943Z,0
2018-05-29T01:36:10.522Z,0
2018-05-29T01:37:11.110Z,0
2018-05-29T01:38:11.687Z,0
2018-05-29T01:39:12.265Z,0
2018-05-29T01:40:12.842Z,0
2018-05-29T01:41:13.432Z,0
2018-05-29T01:42:14.005Z,0
2018-05-29T01:43:14.580Z,0
2018-05-29T01:44:15.156Z,0
2018-05-29T01:45:15.732Z,0
2018-05-29T01:46:16.308Z,0
2018-05-29T01:47:16.882Z,0
2018-05-29T01:48:17.458Z,0
2018-05-29T01:49:18.034Z,0
2018-05-29T01:50:18.616Z,0
2018-05-29T01:51:19.199Z,0
2018-05-29T01:52:19.784Z,0
2018-05-29T01:53:20.363Z,0
2018-05-29T01:54:20.939Z,0
2018-05-29T01:55:21.516Z,0
2018-05-29T01:56:22.091Z,0
2018-05-29T01:57:22.679Z,0
2018-05-29T01:58:23.262Z,0
2018-05-29T01:59:23.835Z,0
2018-05-29T02:00:24.413Z,0
2018-05-29T02:01:25.000Z,0
2018-05-29T02:02:25.578Z,0
2018-05-29T02:03:26.164Z,0
2018-05-29T02:04:26.774Z,0
2018-05-29T02:05:27.322Z,0
2018-05-29T02:06:27.900Z,0
2018-05-29T02:07:28.481Z,0
2018-05-29T02:08:29.056Z,0
2018-05-29T02:09:29.631Z,0
2018-05-29T02:10:30.209Z,0
2018-05-29T02:11:30.785Z,0
2018-05-29T02:12:31.362Z,0
2018-05-29T02:13:31.938Z,0
2018-05-29T02:14:32.517Z,0
2018-05-29T02:15:33.093Z,0
2018-05-29T02:16:33.681Z,0
2018-05-29T02:17:34.268Z,0
2018-05-29T02:18:34.847Z,0
2018-05-29T02:19:35.423Z,0
2018-05-29T02:20:36.000Z,0
2018-05-29T02:21:36.575Z,0
2018-05-29T02:22:37.150Z,0
2018-05-29T02:23:37.728Z,0
2018-05-29T02:24:38.304Z,0
2018-05-29T02:25:38.890Z,0
2018-05-29T02:26:39.466Z,0
2018-05-29T02:27:40.044Z,0
2018-05-29T02:28:40.630Z,0
2018-05-29T02:29:41.208Z,0
2018-05-29T02:30:41.785Z,0
2018-05-29T02:31:42.361Z,0
2018-05-29T02:32:42.940Z,0
2018-05-29T02:33:43.515Z,0
2018-05-29T02:34:44.090Z,0
2018-05-29T02:35:44.679Z,0
2018-05-29T02:36:45.253Z,0
2018-05-29T02:37:45.834Z,0
2018-05-29T02:38:46.421Z,0
2018-05-29T02:39:46.998Z,0
2018-05-29T02:40:47.575Z,0
2018-05-29T02:41:48.152Z,0
2018-05-29T02:42:48.738Z,0
2018-05-29T02:43:49.317Z,0
2018-05-29T02:44:49.894Z,0
2018-05-29T02:45:50.472Z,0
2018-05-29T02:46:51.049Z,0
2018-05-29T02:47:51.625Z,0
2018-05-29T02:48:52.201Z,0
2018-05-29T02:49:52.776Z,0
2018-05-29T02:50:53.352Z,0
2018-05-29T02:51:53.930Z,0
2018-05-29T02:52:54.516Z,0
2018-05-29T02:53:55.093Z,0
2018-05-29T02:54:55.673Z,0
2018-05-29T02:55:56.249Z,0
2018-05-29T02:56:56.829Z,0
2018-05-29T02:57:57.410Z,0
2018-05-29T02:58:57.987Z,0
2018-05-29T02:59:58.567Z,0
2018-05-29T03:00:59.152Z,0
2018-05-29T03:01:59.730Z,0
2018-05-29T03:03:00.356Z,0
2018-05-29T03:04:00.931Z,0
2018-05-29T03:05:01.520Z,0
2018-05-29T03:06:02.097Z,0
2018-05-29T03:07:02.674Z,0
2018-05-29T03:08:03.303Z,0
2018-05-29T03:09:03.839Z,0
2018-05-29T03:10:04.416Z,0
2018-05-29T03:11:04.992Z,0
2018-05-29T03:12:05.572Z,0
2018-05-29T03:13:06.155Z,0
2018-05-29T03:14:06.743Z,0
2018-05-29T03:15:07.317Z,0
2018-05-29T03:16:07.894Z,0
2018-05-29T03:17:08.472Z,0
2018-05-29T03:18:09.048Z,0
2018-05-29T03:19:09.627Z,0
2018-05-29T03:20:10.204Z,0
2018-05-29T03:21:10.781Z,0
2018-05-29T03:22:11.358Z,0
2018-05-29T03:23:11.934Z,0
2018-05-29T03:24:12.516Z,0
2018-05-29T03:25:13.091Z,0
2018-05-29T03:26:13.670Z,0
2018-05-29T03:27:14.248Z,0
2018-05-29T03:28:14.825Z,0
2018-05-29T03:29:15.402Z,0
2018-05-29T03:30:15.982Z,0
2018-05-29T03:31:16.564Z,0
2018-05-29T03:32:17.133Z,0
2018-05-29T03:33:17.713Z,0
2018-05-29T03:34:18.291Z,0
2018-05-29T03:35:18.872Z,0
2018-05-29T03:36:19.448Z,0
2018-05-29T03:37:20.024Z,0
2018-05-29T03:38:20.600Z,0
2018-05-29T03:39:21.177Z,0
2018-05-29T03:40:21.759Z,0
2018-05-29T03:41:22.336Z,0
2018-05-29T03:42:22.921Z,0
2018-05-29T03:43:23.499Z,0
2018-05-29T03:44:24.076Z,0
2018-05-29T03:45:24.655Z,0
2018-05-29T03:46:25.231Z,0
2018-05-29T03:47:25.809Z,0
2018-05-29T03:48:26.386Z,0
2018-05-29T03:49:26.962Z,0
2018-05-29T03:50:27.539Z,0
2018-05-29T03:51:28.126Z,0
2018-05-29T03:52:28.704Z,0
2018-05-29T03:53:29.279Z,0
2018-05-29T03:54:29.856Z,0
2018-05-29T03:55:30.433Z,0
2018-05-29T03:56:31.010Z,0
2018-05-29T03:57:31.589Z,0
2018-05-29T03:58:32.165Z,0
2018-05-29T03:59:32.742Z,0
2018-05-29T04:00:33.318Z,0
2018-05-29T04:01:33.897Z,0
2018-05-29T04:02:34.484Z,0
2018-05-29T04:03:35.061Z,0
2018-05-29T04:04:35.638Z,0
2018-05-29T04:05:36.215Z,0
2018-05-29T04:06:36.791Z,0
2018-05-29T04:07:37.371Z,5
2018-05-29T04:08:37.947Z,5
2018-05-29T04:09:38.539Z,5
2018-05-29T04:10:39.107Z,5
2018-05-29T04:11:39.685Z,5
2018-05-29T04:12:40.262Z,5
2018-05-29T04:13:40.842Z,5
2018-05-29T04:14:41.421Z,5
2018-05-29T04:15:42.001Z,5
2018-05-29T04:16:42.578Z,5
2018-05-29T04:17:43.155Z,5
2018-05-29T04:18:43.732Z,5
2018-05-29T04:19:44.315Z,5
2018-05-29T04:20:44.904Z,5
2018-05-29T04:21:45.489Z,5
2018-05-29T04:22:46.075Z,5
2018-05-29T04:23:46.659Z,5
2018-05-29T04:24:47.239Z,5
2018-05-29T04:25:47.816Z,5
2018-05-29T04:26:48.395Z,5
2018-05-29T04:27:48.973Z,5
2018-05-29T04:28:49.553Z,5
2018-05-29T04:29:50.129Z,5
2018-05-29T04:30:50.710Z,5
2018-05-29T04:31:51.296Z,5
2018-05-29T04:32:51.874Z,5
2018-05-29T04:33:52.453Z,5
2018-05-29T04:34:53.030Z,5
2018-05-29T04:35:53.608Z,5
2018-05-29T04:36:54.187Z,5
2018-05-29T04:37:54.774Z,5
2018-05-29T04:38:55.355Z,10
2018-05-29T04:39:55.938Z,10
2018-05-29T04:40:56.527Z,10
2018-05-29T04:41:57.107Z,10
2018-05-29T04:42:57.688Z,10
2018-05-29T04:43:58.279Z,10
2018-05-29T04:44:58.862Z,10
2018-05-29T04:45:59.438Z,10
2018-05-29T04:47:00.041Z,10
2018-05-29T04:48:00.620Z,10
2018-05-29T04:49:01.197Z,10
2018-05-29T04:50:01.777Z,10
2018-05-29T04:51:02.353Z,10
2018-05-29T04:52:02.933Z,10
2018-05-29T04:53:03.515Z,10
2018-05-29T04:54:04.095Z,10
2018-05-29T04:55:04.677Z,10
2018-05-29T04:56:05.256Z,10
2018-05-29T04:57:05.838Z,10
2018-05-29T04:58:06.413Z,10
2018-05-29T04:59:07.003Z,10
2018-05-29T05:00:07.583Z,10
2018-05-29T05:01:08.161Z,10
2018-05-29T05:02:08.742Z,10
2018-05-29T05:03:09.322Z,10
2018-05-29T05:04:09.903Z,10
2018-05-29T05:05:10.483Z,10
2018-05-29T05:06:11.064Z,10
2018-05-29T05:07:11.651Z,15
2018-05-29T05:08:12.242Z,15
2018-05-29T05:09:12.822Z,15
2018-05-29T05:10:13.414Z,15
2018-05-29T05:11:14.002Z,15
2018-05-29T05:12:14.583Z,15
2018-05-29T05:13:15.163Z,15
2018-05-29T05:14:15.791Z,15
2018-05-29T05:15:16.373Z,15
2018-05-29T05:16:16.955Z,15
2018-05-29T05:17:17.532Z,15
2018-05-29T05:18:18.113Z,15
2018-05-29T05:19:18.702Z,15
2018-05-29T05:20:19.318Z,15
2018-05-29T05:21:19.862Z,15
2018-05-29T05:22:20.441Z,15
2018-05-29T05:23:21.021Z,15
2018-05-29T05:24:21.601Z,15
2018-05-29T05:25:22.180Z,15
2018-05-29T05:26:22.761Z,15
2018-05-29T05:27:23.341Z,15
2018-05-29T05:28:23.922Z,15
2018-05-29T05:29:24.503Z,15
2018-05-29T05:30:25.082Z,15
2018-05-29T05:31:25.664Z,15
2018-05-29T05:32:26.243Z,15
2018-05-29T05:33:26.824Z,15
2018-05-29T05:34:27.405Z,15
2018-05-29T05:35:27.985Z,15
2018-05-29T05:36:28.566Z,15
2018-05-29T05:37:29.148Z,15
2018-05-29T05:38:29.728Z,15
2018-05-29T05:39:30.323Z,15
2018-05-29T05:40:30.902Z,15
2018-05-29T05:41:31.480Z,15
2018-05-29T05:42:32.061Z,15
2018-05-29T05:43:32.642Z,15
2018-05-29T05:44:33.221Z,15
2018-05-29T05:45:33.800Z,15
2018-05-29T05:46:34.381Z,15
2018-05-29T05:47:34.961Z,15
2018-05-29T05:48:35.543Z,15
2018-05-29T05:49:36.123Z,15
2018-05-29T05:50:36.701Z,15
2018-05-29T05:51:37.281Z,15
2018-05-29T05:52:37.903Z,15
2018-05-29T05:53:38.452Z,15
2018-05-29T05:54:39.033Z,15
2018-05-29T05:55:39.624Z,15
2018-05-29T05:56:40.207Z,15
2018-05-29T05:57:40.789Z,15
2018-05-29T05:58:41.368Z,15
2018-05-29T05:59:41.947Z,15
2018-05-29T06:00:42.527Z,15
2018-05-29T06:01:43.108Z,15
2018-05-29T06:02:43.691Z,15
2018-05-29T06:03:44.270Z,15
2018-05-29T06:04:44.850Z,15
2018-05-29T06:05:45.433Z,15
2018-05-29T06:06:46.014Z,15
2018-05-29T06:07:46.595Z,15
2018-05-29T06:08:47.176Z,20
2018-05-29T06:09:47.756Z,20
2018-05-29T06:10:48.337Z,20
2018-05-29T06:11:48.916Z,20
2018-05-29T06:12:49.496Z,20
2018-05-29T06:13:50.076Z,20
2018-05-29T06:14:50.658Z,20
2018-05-29T06:15:51.241Z,20
2018-05-29T06:16:51.820Z,20
2018-05-29T06:17:52.399Z,20
2018-05-29T06:18:52.980Z,20
2018-05-29T06:19:53.560Z,20
2018-05-29T06:20:54.141Z,20
2018-05-29T06:21:54.726Z,20
2018-05-29T06:22:55.303Z,20
2018-05-29T06:23:55.886Z,20
2018-05-29T06:24:56.473Z,20
2018-05-29T06:25:57.058Z,20
2018-05-29T06:26:57.640Z,20
2018-05-29T06:27:58.219Z,20
2018-05-29T06:28:58.800Z,20
2018-05-29T06:29:59.382Z,20
2018-05-29T06:30:59.965Z,20
2018-05-29T06:32:00.545Z,20
2018-05-29T06:33:01.125Z,20
2018-05-29T06:34:01.706Z,20
2018-05-29T06:35:02.289Z,20
2018-05-29T06:36:02.880Z,20
2018-05-29T06:37:03.459Z,20
2018-05-29T06:38:04.043Z,20
2018-05-29T06:39:04.622Z,20
2018-05-29T06:40:05.203Z,20
2018-05-29T06:41:05.789Z,20
2018-05-29T06:42:06.367Z,20
2018-05-29T06:43:06.948Z,25
2018-05-29T06:44:07.529Z,25
2018-05-29T06:45:08.184Z,25
2018-05-29T06:46:08.694Z,25
2018-05-29T06:47:09.275Z,25
2018-05-29T06:48:09.855Z,25
2018-05-29T06:49:10.436Z,25
2018-05-29T06:50:11.018Z,25
2018-05-29T06:51:11.602Z,25
2018-05-29T06:52:12.183Z,25
2018-05-29T06:53:12.764Z,25
2018-05-29T06:54:13.354Z,25
2018-05-29T06:55:13.940Z,25
2018-05-29T06:56:14.523Z,25
2018-05-29T06:57:15.105Z,25
2018-05-29T06:58:15.687Z,25
2018-05-29T06:59:16.281Z,25
2018-05-29T07:00:16.861Z,25
2018-05-29T07:01:17.440Z,25
2018-05-29T07:02:18.022Z,25
2018-05-29T07:03:18.605Z,25
2018-05-29T07:04:19.185Z,25
2018-05-29T07:05:19.768Z,25
2018-05-29T07:06:20.363Z,25
2018-05-29T07:07:20.948Z,25
2018-05-29T07:08:21.525Z,25
2018-05-29T07:09:22.117Z,25
2018-05-29T07:10:22.700Z,25
2018-05-29T07:11:23.282Z,25
2018-05-29T07:12:23.876Z,25
2018-05-29T07:13:24.459Z,25
2018-05-29T07:14:25.039Z,25
2018-05-29T07:15:25.621Z,25
2018-05-29T07:16:26.204Z,25
2018-05-29T07:17:26.786Z,25
2018-05-29T07:18:27.369Z,25
2018-05-29T07:19:27.951Z,25
2018-05-29T07:20:28.536Z,25
2018-05-29T07:21:29.129Z,25
2018-05-29T07:22:29.712Z,25
2018-05-29T07:23:30.294Z,25
2018-05-29T07:24:30.876Z,25
2018-05-29T07:25:31.457Z,25
2018-05-29T07:26:32.040Z,25
2018-05-29T07:27:32.624Z,25
2018-05-29T07:28:33.206Z,25
2018-05-29T07:29:33.788Z,25
2018-05-29T07:30:34.372Z,25
2018-05-29T07:31:34.960Z,25
2018-05-29T07:32:35.548Z,25
2018-05-29T07:33:36.143Z,25
2018-05-29T07:34:36.725Z,25
2018-05-29T07:35:37.307Z,25
2018-05-29T07:36:37.889Z,25
2018-05-29T07:37:38.474Z,25
2018-05-29T07:38:39.059Z,25
2018-05-29T07:39:39.701Z,25
2018-05-29T07:40:40.228Z,25
2018-05-29T07:41:40.810Z,25
2018-05-29T07:42:41.402Z,25
2018-05-29T07:43:41.995Z,25
2018-05-29T07:44:42.589Z,25
2018-05-29T07:45:43.170Z,25
2018-05-29T07:46:43.751Z,25
2018-05-29T07:47:44.334Z,25
2018-05-29T07:48:44.916Z,25
2018-05-29T07:49:45.500Z,25
2018-05-29T07:50:46.083Z,25
2018-05-29T07:51:46.668Z,25
2018-05-29T07:52:47.258Z,25
2018-05-29T07:53:47.840Z,25
2018-05-29T07:54:48.424Z,25
2018-05-29T07:55:49.012Z,25
2018-05-29T07:56:49.590Z,25
2018-05-29T07:57:50.171Z,25
2018-05-29T07:58:50.816Z,25
2018-05-29T07:59:51.337Z,25
2018-05-29T08:00:51.921Z,25
2018-05-29T08:01:52.516Z,25
2018-05-29T08:02:53.099Z,25
2018-05-29T08:03:53.682Z,25
2018-05-29T08:04:54.265Z,25
2018-05-29T08:05:54.848Z,30
2018-05-29T08:06:55.432Z,30
2018-05-29T08:07:56.013Z,30
2018-05-29T08:08:56.597Z,30
2018-05-29T08:09:57.190Z,30
2018-05-29T08:10:57.781Z,30
2018-05-29T08:11:58.368Z,30
2018-05-29T08:12:58.948Z,30
2018-05-29T08:13:59.541Z,30
2018-05-29T08:15:00.123Z,30
2018-05-29T08:16:00.705Z,30
2018-05-29T08:17:01.290Z,30
2018-05-29T08:18:01.874Z,30
2018-05-29T08:19:02.466Z,30
2018-05-29T08:20:03.053Z,30
2018-05-29T08:21:03.636Z,30
2018-05-29T08:22:04.219Z,30
2018-05-29T08:23:04.805Z,30
2018-05-29T08:24:05.388Z,30
2018-05-29T08:25:05.971Z,30
2018-05-29T08:26:06.553Z,30
2018-05-29T08:27:07.140Z,30
2018-05-29T08:28:07.721Z,30
2018-05-29T08:29:08.305Z,30
2018-05-29T08:30:08.888Z,30
2018-05-29T08:31:09.471Z,30
2018-05-29T08:32:10.056Z,30
2018-05-29T08:33:10.643Z,30
2018-05-29T08:34:11.228Z,30
2018-05-29T08:35:11.817Z,30
2018-05-29T08:36:12.401Z,30
2018-05-29T08:37:12.983Z,30
2018-05-29T08:38:13.566Z,30
2018-05-29T08:39:14.151Z,30
2018-05-29T08:40:14.734Z,30
2018-05-29T08:41:15.316Z,30
2018-05-29T08:42:15.900Z,30
2018-05-29T08:43:16.486Z,30
2018-05-29T08:44:17.071Z,30
2018-05-29T08:45:17.654Z,30
2018-05-29T08:46:18.282Z,30
2018-05-29T08:47:18.837Z,30
2018-05-29T08:48:19.420Z,30
2018-05-29T08:49:20.003Z,30
2018-05-29T08:50:20.586Z,30
2018-05-29T08:51:21.169Z,30
2018-05-29T08:52:21.763Z,30
2018-05-29T08:53:22.347Z,30
2018-05-29T08:54:22.929Z,30
2018-05-29T08:55:23.515Z,30
2018-05-29T08:56:24.100Z,30
2018-05-29T08:57:24.741Z,30
2018-05-29T08:58:25.268Z,35
2018-05-29T08:59:25.853Z,35
2018-05-29T09:00:26.440Z,35
2018-05-29T09:01:27.031Z,35
2018-05-29T09:02:27.616Z,35
2018-05-29T09:03:28.203Z,35
2018-05-29T09:04:28.782Z,35
2018-05-29T09:05:29.368Z,35
2018-05-29T09:06:29.953Z,35
2018-05-29T09:07:30.538Z,35
2018-05-29T09:08:31.121Z,35
2018-05-29T09:09:31.705Z,35
2018-05-29T09:10:32.289Z,35
2018-05-29T09:11:32.872Z,35
2018-05-29T09:12:33.454Z,35
2018-05-29T09:13:34.037Z,35
2018-05-29T09:14:34.620Z,35
2018-05-29T09:15:35.207Z,35
2018-05-29T09:16:35.791Z,35
2018-05-29T09:17:36.373Z,35
2018-05-29T09:18:36.966Z,35
2018-05-29T09:19:37.551Z,35
2018-05-29T09:20:38.145Z,35
2018-05-29T09:21:38.729Z,35
2018-05-29T09:22:39.311Z,35
2018-05-29T09:23:39.898Z,35
2018-05-29T09:24:40.482Z,35
2018-05-29T09:25:41.064Z,35
2018-05-29T09:26:41.648Z,35
2018-05-29T09:27:42.233Z,35
2018-05-29T09:28:42.822Z,35
2018-05-29T09:29:43.460Z,35
2018-05-29T09:30:43.989Z,35
2018-05-29T09:31:44.569Z,35
2018-05-29T09:32:45.155Z,35
2018-05-29T09:33:45.739Z,35
2018-05-29T09:34:46.324Z,35
2018-05-29T09:35:46.909Z,35
2018-05-29T09:36:47.498Z,35
2018-05-29T09:37:48.079Z,35
2018-05-29T09:38:48.663Z,35
2018-05-29T09:39:49.261Z,35
2018-05-29T09:40:49.854Z,35
2018-05-29T09:41:50.438Z,35
2018-05-29T09:42:51.024Z,35
2018-05-29T09:43:51.615Z,35
2018-05-29T09:44:52.205Z,35
2018-05-29T09:45:52.858Z,35
2018-05-29T09:46:53.379Z,35
2018-05-29T09:47:53.972Z,35
2018-05-29T09:48:54.558Z,35
2018-05-29T09:49:55.143Z,35
2018-05-29T09:50:55.728Z,35
2018-05-29T09:51:56.314Z,35
2018-05-29T09:52:56.944Z,35
2018-05-29T09:53:57.496Z,35
2018-05-29T09:54:58.084Z,35
2018-05-29T09:55:58.677Z,35
2018-05-29T09:56:59.262Z,35
2018-05-29T09:57:59.845Z,35
2018-05-29T09:59:00.432Z,35
2018-05-29T10:00:01.014Z,35
2018-05-29T10:01:01.601Z,35
2018-05-29T10:02:02.192Z,35
2018-05-29T10:03:02.778Z,35
2018-05-29T10:04:03.362Z,35
2018-05-29T10:05:03.948Z,35
2018-05-29T10:06:04.536Z,35
2018-05-29T10:07:05.200Z,35
2018-05-29T10:08:05.701Z,35
2018-05-29T10:09:06.310Z,35
2018-05-29T10:10:06.874Z,35
2018-05-29T10:11:07.467Z,35
2018-05-29T10:12:08.053Z,35
2018-05-29T10:13:08.644Z,35
2018-05-29T10:14:09.221Z,35
2018-05-29T10:15:09.807Z,35
2018-05-29T10:16:10.400Z,35
2018-05-29T10:17:10.986Z,35
2018-05-29T10:18:11.570Z,35
2018-05-29T10:19:12.155Z,35
2018-05-29T10:20:12.741Z,35
2018-05-29T10:21:13.325Z,35
2018-05-29T10:22:13.909Z,35
2018-05-29T10:23:14.498Z,35
2018-05-29T10:24:15.080Z,35
2018-05-29T10:25:15.665Z,35
2018-05-29T10:26:16.278Z,35
2018-05-29T10:27:16.844Z,35
2018-05-29T10:28:17.430Z,35
2018-05-29T10:29:18.012Z,35
2018-05-29T10:30:18.597Z,35
2018-05-29T10:31:19.183Z,35
2018-05-29T10:32:19.770Z,35
2018-05-29T10:33:20.353Z,35
2018-05-29T10:34:20.938Z,35
2018-05-29T10:35:21.526Z,40
2018-05-29T10:36:22.111Z,35
2018-05-29T10:37:22.695Z,35
2018-05-29T10:38:23.284Z,40
2018-05-29T10:39:23.869Z,40
2018-05-29T10:40:24.452Z,35
2018-05-29T10:41:25.038Z,40
2018-05-29T10:42:25.623Z,40
2018-05-29T10:43:26.211Z,40
2018-05-29T10:44:26.795Z,40
2018-05-29T10:45:27.379Z,35
2018-05-29T10:46:27.966Z,40
2018-05-29T10:47:28.551Z,40
2018-05-29T10:48:29.139Z,40
2018-05-29T10:49:29.722Z,40
2018-05-29T10:50:30.307Z,40
2018-05-29T10:51:30.903Z,40
2018-05-29T10:52:31.493Z,40
2018-05-29T10:53:32.074Z,40
2018-05-29T10:54:32.659Z,40
2018-05-29T10:55:33.244Z,35
2018-05-29T10:56:33.828Z,35
2018-05-29T10:57:34.415Z,40
2018-05-29T10:58:35.014Z,40
2018-05-29T10:59:35.605Z,40
2018-05-29T11:00:36.190Z,40
2018-05-29T11:01:36.774Z,40
2018-05-29T11:02:37.361Z,40
2018-05-29T11:03:37.958Z,40
2018-05-29T11:04:38.551Z,40
2018-05-29T11:05:39.136Z,40
2018-05-29T11:06:39.731Z,40
2018-05-29T11:07:40.318Z,40
2018-05-29T11:08:40.919Z,30
2018-05-29T11:09:41.500Z,30
2018-05-29T11:10:42.086Z,40
2018-05-29T11:11:42.671Z,40
2018-05-29T11:12:43.257Z,40
2018-05-29T11:13:43.842Z,40
2018-05-29T11:14:44.427Z,40
2018-05-29T11:15:45.020Z,40
2018-05-29T11:16:45.600Z,40
2018-05-29T11:17:46.188Z,40
2018-05-29T11:18:46.771Z,40
2018-05-29T11:19:47.356Z,30
2018-05-29T11:20:47.941Z,25
2018-05-29T11:21:48.526Z,25
2018-05-29T11:22:49.111Z,40
2018-05-29T11:23:49.696Z,25
2018-05-29T11:24:50.282Z,40
2018-05-29T11:25:50.866Z,40
2018-05-29T11:26:51.450Z,45
2018-05-29T11:27:52.034Z,45
2018-05-29T11:28:52.620Z,45
2018-05-29T11:29:53.207Z,45
2018-05-29T11:30:53.792Z,45
2018-05-29T11:31:54.387Z,45
2018-05-29T11:32:54.973Z,45
2018-05-29T12:09:59.105Z,45
2018-05-29T12:10:59.690Z,30
2018-05-29T12:12:00.276Z,30
2018-05-29T12:13:00.865Z,45
2018-05-29T12:14:01.451Z,45
2018-05-29T12:15:02.039Z,45
2018-05-29T12:16:02.626Z,45
2018-05-29T12:17:03.213Z,45
2018-05-29T12:18:03.804Z,45
2018-05-29T12:19:04.391Z,50
2018-05-29T12:20:04.976Z,45
2018-05-29T12:21:05.562Z,45
2018-05-29T12:22:06.148Z,45
2018-05-29T12:23:06.736Z,45
2018-05-29T12:24:07.325Z,45
2018-05-29T12:25:07.911Z,45
2018-05-29T12:26:08.510Z,45
2018-05-29T12:27:09.096Z,45
2018-05-29T12:28:09.726Z,50
2018-05-29T12:29:10.278Z,50
2018-05-29T12:30:10.874Z,35
2018-05-29T12:31:11.467Z,45
2018-05-29T12:32:12.051Z,50
2018-05-29T12:33:12.654Z,30
2018-05-29T12:34:13.241Z,50
2018-05-29T12:35:13.839Z,50
2018-05-29T12:36:14.437Z,50
2018-05-29T12:37:15.036Z,50
2018-05-29T12:38:15.626Z,50
2018-05-29T12:39:16.210Z,50
2018-05-29T12:40:16.809Z,50
2018-05-29T12:41:17.396Z,50
2018-05-29T12:42:17.983Z,50
2018-05-29T12:43:18.571Z,50
2018-05-29T12:44:19.157Z,35
2018-05-29T12:45:19.744Z,35
2018-05-29T12:46:20.354Z,50
2018-05-29T12:47:20.930Z,50
2018-05-29T12:48:21.518Z,50
2018-05-29T12:49:22.115Z,45
2018-05-29T12:50:22.704Z,30
2018-05-29T12:51:23.289Z,30
2018-05-29T12:52:23.884Z,30
2018-05-29T12:53:24.466Z,25
2018-05-29T12:54:25.063Z,30
2018-05-29T12:55:25.651Z,30
2018-05-29T12:56:26.236Z,30
2018-05-29T12:57:26.834Z,35
2018-05-29T12:58:27.420Z,50
2018-05-29T12:59:28.009Z,45
2018-05-29T13:00:28.598Z,50
2018-05-29T13:01:29.187Z,40
2018-05-29T13:02:29.783Z,35
2018-05-29T13:03:30.369Z,30
2018-05-29T13:04:30.955Z,25
2018-05-29T13:05:31.595Z,25
2018-05-29T13:06:32.129Z,25
2018-05-29T13:07:32.714Z,30
2018-05-29T13:08:33.301Z,30
2018-05-29T13:09:33.901Z,45
2018-05-29T13:10:34.485Z,40
2018-05-29T13:11:35.083Z,50
2018-05-29T13:12:35.670Z,50
2018-05-29T13:13:36.256Z,50
2018-05-29T13:14:36.843Z,50
2018-05-29T13:15:37.431Z,50
2018-05-29T13:16:38.086Z,50
2018-05-29T13:17:38.605Z,50
2018-05-29T13:18:39.194Z,50
2018-05-29T13:19:39.798Z,50
2018-05-29T13:20:40.379Z,50
2018-05-29T13:21:40.967Z,35
2018-05-29T13:22:41.549Z,30
2018-05-29T13:23:42.139Z,30
2018-05-29T13:24:42.723Z,30
2018-05-29T13:25:43.318Z,25
2018-05-29T13:26:43.905Z,25
2018-05-29T13:27:44.536Z,25
2018-05-29T13:28:45.077Z,25
2018-05-29T13:29:45.667Z,25
2018-05-29T13:30:46.260Z,25
2018-05-29T13:31:46.856Z,25
2018-05-29T13:32:47.445Z,25
2018-05-29T13:33:48.025Z,25
2018-05-29T13:34:48.632Z,25
2018-05-29T13:35:49.219Z,25
2018-05-29T13:36:49.805Z,25
2018-05-29T13:37:50.390Z,25
2018-05-29T13:38:50.975Z,25
2018-05-29T13:39:51.572Z,25
2018-05-29T13:40:52.157Z,25
2018-05-29T13:41:52.744Z,25
2018-05-29T13:42:53.329Z,30
2018-05-29T13:43:53.916Z,35
2018-05-29T13:44:54.515Z,30
2018-05-29T13:45:55.097Z,30
2018-05-29T13:46:55.682Z,30
2018-05-29T13:47:56.268Z,25
2018-05-29T13:48:56.853Z,30
2018-05-29T13:49:57.441Z,30
2018-05-29T13:50:58.026Z,30
2018-05-29T13:51:58.622Z,30
2018-05-29T13:52:59.209Z,30
2018-05-29T13:53:59.792Z,30
2018-05-29T13:55:00.378Z,30
2018-05-29T13:56:00.965Z,30
2018-05-29T13:57:01.549Z,30
2018-05-29T13:58:02.134Z,25
2018-05-29T13:59:02.721Z,25
2018-05-29T14:00:03.317Z,25
2018-05-29T14:01:03.903Z,25
2018-05-29T14:02:04.489Z,25
2018-05-29T14:03:05.074Z,25
2018-05-29T14:04:05.658Z,25
2018-05-29T14:05:06.249Z,25
2018-05-29T14:06:06.830Z,25
2018-05-29T14:07:07.415Z,25
2018-05-29T14:08:07.999Z,25
2018-05-29T14:09:08.586Z,25
2018-05-29T14:10:09.171Z,25
2018-05-29T14:11:09.756Z,20
2018-05-29T14:12:10.351Z,20
2018-05-29T14:13:10.937Z,20
2018-05-29T14:14:11.554Z,20
2018-05-29T14:15:12.106Z,20
2018-05-29T14:16:12.691Z,20
2018-05-29T14:17:13.286Z,20
2018-05-29T14:18:13.872Z,20
2018-05-29T14:19:14.458Z,20
2018-05-29T14:20:15.044Z,20
2018-05-29T14:21:15.628Z,20
2018-05-29T14:22:16.214Z,20
2018-05-29T14:23:16.809Z,20
2018-05-29T14:24:17.394Z,20
2018-05-29T14:25:17.981Z,20
2018-05-29T14:26:18.577Z,20
2018-05-29T14:27:19.160Z,20
2018-05-29T14:28:19.755Z,20
2018-05-29T14:29:20.341Z,20
2018-05-29T14:30:20.937Z,20
2018-05-29T14:31:21.520Z,20
2018-05-29T14:32:22.110Z,20
2018-05-29T14:33:22.693Z,20
2018-05-29T14:34:23.285Z,20
2018-05-29T14:35:23.872Z,20
2018-05-29T14:36:24.464Z,20
2018-05-29T14:37:25.060Z,20
2018-05-29T14:38:25.646Z,20
2018-05-29T14:39:26.240Z,20
2018-05-29T14:40:26.832Z,15
2018-05-29T14:41:27.418Z,15
2018-05-29T14:42:28.004Z,15
2018-05-29T14:43:28.589Z,15
2018-05-29T14:44:29.174Z,15
2018-05-29T14:45:29.759Z,15
2018-05-29T14:46:30.357Z,15
2018-05-29T14:47:30.941Z,15
2018-05-29T14:48:31.527Z,15
2018-05-29T14:49:32.119Z,15
2018-05-29T14:50:32.706Z,15
2018-05-29T14:51:33.290Z,15
2018-05-29T14:52:33.875Z,10
2018-05-29T14:53:34.466Z,10
2018-05-29T14:54:35.044Z,10
2018-05-29T14:55:35.632Z,10
2018-05-29T14:56:36.214Z,10
2018-05-29T14:57:36.798Z,10
2018-05-29T14:58:37.438Z,10
2018-05-29T14:59:37.968Z,10
2018-05-29T15:00:38.553Z,10
2018-05-29T15:01:39.137Z,10
2018-05-29T15:02:39.725Z,10
2018-05-29T15:03:40.308Z,10
2018-05-29T15:04:40.896Z,10
2018-05-29T15:05:41.478Z,10
2018-05-29T15:06:42.079Z,10
2018-05-29T15:07:42.661Z,10
2018-05-29T15:08:43.246Z,10
2018-05-29T15:09:43.831Z,10